Latest Weather Observations for Jandakot

IDW60801

Issued at 12:35 pm WST Monday 24 November 2014 (issued every 30 minutes, with the page automatically refreshed every 10 minutes)

About weather observations | Map of weather stations | Latest weather observations for WA | Other Formats
Station Details ID: 009172 Name: JANDAKOT AERO Lat: -32.10 Lon: 115.88 Height: 30.0 m
Data from the previous 72 hours. | See also: Recent months at Jandakot
Date/Time
WST
Temp
°C
App
Temp
°C
Dew
Point
Rel
Hum
%
Delta-T
°C
Wind Press
QNH
hPa
Press
MSL
hPa
Rain
since 9 am
mm
Dir
 
Spd
km/h
Gust
km/h
Spd
kts
Gust
kts
24/12:30pm 24.5 20.6 3.3 25 10.3 ENE 13 19 7 10 1020.2 1020.1 0.0
24/12:00pm 23.7 19.8 3.2 26 9.9 ENE 13 19 7 10 1020.6 1020.5 0.0
24/11:30am 22.8 18.6 3.9 29 9.2 ESE 15 24 8 13 1021.0 1020.9 0.0
24/11:00am 22.8 18.0 4.5 30 9.0 SE 19 24 10 13 1021.4 1021.3 0.0
24/10:30am 20.7 16.2 4.3 34 7.9 E 17 28 9 15 1021.8 1021.7 0.0
24/10:00am 20.0 16.7 4.4 35 7.5 ESE 11 15 6 8 1022.1 1022.0 0.0
24/09:30am 19.8 14.7 4.1 35 7.5 E 20 30 11 16 1022.1 1022.0 0.0
24/09:00am 18.6 14.2 4.8 40 6.6 E 17 26 9 14 1022.5 1022.4 0.0
24/08:30am 17.4 12.6 4.5 42 6.1 ESE 19 24 10 13 1022.9 1022.8 0.0
24/08:00am 16.9 11.9 4.6 44 5.8 E 20 26 11 14 1023.0 1022.9 0.0
24/07:30am 15.3 9.9 4.5 48 5.0 ESE 22 30 12 16 1022.9 1022.8 0.0
24/07:00am 14.2 8.0 4.4 51 4.5 E 26 35 14 19 1022.8 1022.7 0.0
24/06:30am 13.6 8.2 4.7 55 4.1 E 22 30 12 16 1022.7 1022.6 0.0
24/06:00am 12.8 8.8 4.7 58 3.7 E 15 20 8 11 1022.8 1022.7 0.0
24/05:30am 11.8 7.7 4.2 59 3.4 ESE 15 20 8 11 1022.7 1022.6 0.0
24/05:00am 9.9 6.2 4.2 67 2.5 SE 13 19 7 10 1022.3 1022.2 0.0
24/04:30am 10.2 6.8 4.1 66 2.7 SE 11 17 6 9 1022.1 1022.0 0.0
24/04:00am 9.8 6.9 4.6 70 2.3 SSE 9 11 5 6 1021.7 1021.6 0.0
24/03:30am 10.0 6.8 4.9 70 2.3 S 11 15 6 8 1021.7 1021.6 0.0
24/03:00am 10.1 6.5 5.0 70 2.3 S 13 17 7 9 1021.6 1021.5 0.0
24/02:30am 10.3 7.1 5.0 69 2.4 S 11 15 6 8 1021.3 1021.2 0.0
24/02:00am 10.8 7.6 5.1 68 2.6 S 11 15 6 8 1021.4 1021.3 0.0
24/01:30am 11.2 7.7 5.3 67 2.7 S 13 15 7 8 1021.2 1021.1 0.0
24/01:00am 11.7 7.8 5.4 65 2.9 S 15 19 8 10 1021.2 1021.1 0.0
24/12:30am 12.2 8.3 5.5 63 3.1 S 15 20 8 11 1021.0 1020.9 0.0
24/12:00am 12.7 8.5 5.6 62 3.3 S 17 22 9 12 1021.0 1020.9 0.0
 
Date/Time
WST
Temp
°C
App
Temp
°C
Dew
Point
Rel
Hum
%
Delta-T
°C
Wind Press
QNH
hPa
Press
MSL
hPa
Rain
since 9 am
mm
Dir
 
Spd
km/h
Gust
km/h
Spd
kts
Gust
kts
23/11:30pm 13.2 8.6 5.5 59 3.6 S 19 26 10 14 1020.9 1020.8 0.0
23/11:00pm 13.9 9.3 5.6 57 3.9 S 19 24 10 13 1020.8 1020.7 0.0
23/10:30pm 14.5 9.9 5.6 55 4.2 S 19 26 10 14 1020.7 1020.6 0.0
23/10:00pm 15.3 10.9 6.4 55 4.3 S 19 28 10 15 1020.7 1020.6 0.0
23/09:30pm 15.9 11.7 7.4 57 4.2 S 19 30 10 16 1020.5 1020.4 0.0
23/09:00pm 16.0 13.8 9.2 64 3.5 SSW 11 17 6 9 1020.2 1020.1 0.0
23/08:30pm 16.3 13.7 9.3 63 3.6 SSW 13 17 7 9 1019.8 1019.7 0.0
23/08:00pm 16.8 13.8 9.1 60 4.0 SSW 15 22 8 12 1019.5 1019.4 0.0
23/07:30pm 17.1 13.7 9.0 59 4.2 SSW 17 24 9 13 1019.2 1019.1 0.0
23/07:00pm 17.5 13.1 9.0 57 4.4 SSW 22 32 12 17 1018.9 1018.8 0.0
23/06:30pm 18.2 14.0 8.3 52 5.1 SW 20 33 11 18 1018.7 1018.6 0.0
23/06:00pm 19.1 14.8 8.0 48 5.7 SSW 20 33 11 18 1018.2 1018.1 0.0
23/05:30pm 19.6 15.1 6.9 43 6.4 SSW 20 26 11 14 1017.7 1017.6 0.0
23/05:00pm 20.0 14.3 6.7 42 6.7 SSW 26 35 14 19 1017.7 1017.6 0.0
23/04:30pm 20.2 14.3 7.3 43 6.6 SSW 28 39 15 21 1017.5 1017.4 0.0
23/04:00pm 21.0 15.4 7.1 40 7.1 SW 26 35 14 19 1017.3 1017.2 0.0
23/03:30pm 20.9 14.9 7.2 41 7.0 SW 28 39 15 21 1017.1 1017.0 0.0
23/03:00pm 21.2 15.0 7.7 41 7.0 SW 30 48 16 26 1017.0 1016.9 0.0
23/02:55pm 21.8 15.6 7.8 40 7.3 WSW 30 48 16 26 1017.0 1016.9 0.0
23/02:30pm 22.3 17.0 8.5 41 7.3 SW 26 37 14 20 1017.1 1017.0 0.0
23/02:00pm 21.3 16.2 7.8 41 7.0 SW 24 33 13 18 1017.3 1017.2 0.0
23/01:30pm 22.3 16.6 8.2 40 7.4 WSW 28 35 15 19 1017.3 1017.2 0.0
23/01:00pm 22.4 17.2 8.9 42 7.2 WSW 26 37 14 20 1017.3 1017.2 0.0
23/12:30pm 22.4 17.3 9.1 42 7.1 WSW 26 35 14 19 1017.6 1017.5 0.0
23/12:00pm 21.9 16.5 7.9 40 7.3 WSW 26 37 14 20 1017.7 1017.6 0.0
23/11:30am 21.5 16.9 8.3 42 6.9 SW 22 32 12 17 1017.8 1017.7 0.0
23/11:00am 21.6 16.9 9.2 45 6.6 SW 24 35 13 19 1017.8 1017.7 0.0
23/10:30am 21.1 16.8 7.8 42 6.9 SW 20 30 11 16 1017.9 1017.8 0.0
23/10:00am 19.5 14.0 9.0 50 5.5 SW 28 37 15 20 1017.9 1017.8 0.0
23/09:30am 20.8 16.2 9.8 49 5.9 S 24 33 13 18 1017.7 1017.6 0.0
23/09:00am 20.2 15.4 7.3 43 6.6 SSW 22 33 12 18 1017.7 1017.6 0.0
23/08:30am 18.3 15.9 11.5 64 3.7 SW 15 22 8 12 1017.9 1017.8 0.0
23/08:00am 19.3 16.3 10.8 58 4.6 S 17 20 9 11 1017.6 1017.5 0.0
23/07:30am 18.3 15.4 10.9 62 4.0 SSE 17 24 9 13 1017.5 1017.4 0.0
23/07:00am 17.7 13.9 11.2 65 3.5 SSW 22 30 12 16 1017.0 1016.9 0.0
23/06:30am 17.8 14.9 9.6 58 4.3 SSW 15 22 8 12 1016.6 1016.5 0.0
23/06:00am 17.9 14.5 9.1 56 4.6 SW 17 22 9 12 1016.1 1016.0 0.0
23/05:30am 17.2 14.5 9.1 59 4.2 SSW 13 24 7 13 1015.8 1015.7 0.0
23/05:00am 16.6 13.5 8.8 60 4.0 SW 15 20 8 11 1015.5 1015.4 0.0
23/04:30am 16.1 14.1 8.7 61 3.8 SW 9 13 5 7 1015.3 1015.2 0.0
23/04:00am 16.2 13.6 7.8 57 4.2 SSW 11 17 6 9 1015.1 1015.0 0.0
23/03:30am 17.2 13.5 6.2 48 5.4 SSW 15 22 8 12 1015.0 1014.9 0.0
23/03:00am 17.3 12.9 6.6 49 5.3 SSW 19 28 10 15 1014.9 1014.8 0.0
23/02:30am 17.1 13.8 9.4 60 4.0 SSW 17 24 9 13 1014.9 1014.8 0.0
23/02:00am 17.1 13.9 8.3 56 4.5 SW 15 24 8 13 1014.8 1014.7 0.0
23/01:30am 17.0 14.0 7.7 54 4.7 SW 13 17 7 9 1015.0 1014.9 0.0
23/01:00am 17.2 13.2 8.4 56 4.5 SSW 19 26 10 14 1015.2 1015.1 0.0
23/12:30am 17.4 13.9 8.7 56 4.5 SSW 17 24 9 13 1015.3 1015.2 0.0
23/12:00am 17.5 13.7 9.0 57 4.4 SSW 19 24 10 13 1015.3 1015.2 0.0
 
Date/Time
WST
Temp
°C
App
Temp
°C
Dew
Point
Rel
Hum
%
Delta-T
°C
Wind Press
QNH
hPa
Press
MSL
hPa
Rain
since 9 am
mm
Dir
 
Spd
km/h
Gust
km/h
Spd
kts
Gust
kts
22/11:30pm 17.2 14.8 10.2 63 3.7 SSW 13 19 7 10 1015.4 1015.3 0.0
22/11:00pm 17.2 14.7 11.1 67 3.3 SSW 15 22 8 12 1015.6 1015.5 0.0
22/10:30pm 17.3 16.2 12.0 71 2.9 SW 9 13 5 7 1015.8 1015.7 0.0
22/10:00pm 17.1 16.8 12.6 75 2.5 S 6 13 3 7 1016.0 1015.9 0.0
22/09:30pm 16.8 16.5 12.8 77 2.2 S 6 7 3 4 1016.0 1015.9 0.0
22/09:00pm 16.3 15.5 12.9 80 1.9 S 9 11 5 6 1015.7 1015.6 0.0
22/08:30pm 16.0 15.6 13.1 83 1.6 SW 7 9 4 5 1015.7 1015.6 0.0
22/08:00pm 16.7 15.5 12.9 78 2.1 SW 11 17 6 9 1015.7 1015.6 0.0
22/07:30pm 17.0 14.9 12.3 74 2.6 SW 15 20 8 11 1015.5 1015.4 0.0
22/07:00pm 17.0 14.2 12.7 76 2.4 SW 19 28 10 15 1015.4 1015.3 0.0
22/06:30pm 17.9 15.1 12.5 70 3.0 SW 19 26 10 14 1015.2 1015.1 0.0
22/06:00pm 18.4 14.9 12.1 66 3.5 SW 22 32 12 17 1014.9 1014.8 0.0
22/05:30pm 19.9 16.1 11.1 57 4.8 WSW 22 30 12 16 1014.7 1014.6 0.0
22/05:00pm 19.8 15.6 11.0 57 4.8 SW 24 33 13 18 1014.6 1014.5 0.0
22/04:30pm 20.0 16.0 10.4 54 5.2 WSW 22 32 12 17 1014.6 1014.5 0.0
22/04:00pm 21.5 16.9 8.1 42 7.0 WSW 22 32 12 17 1014.5 1014.4 0.0
22/03:30pm 22.0 17.4 8.1 41 7.3 WSW 22 35 12 19 1014.4 1014.3 0.0
22/03:00pm 21.0 16.1 8.4 44 6.6 WSW 24 33 13 18 1014.4 1014.3 0.0
22/02:30pm 21.5 16.2 8.4 43 6.9 W 26 32 14 17 1014.4 1014.3 0.0
22/02:00pm 21.0 16.4 8.2 43 6.7 WNW 22 28 12 15 1014.5 1014.4 0.0
22/01:30pm 22.2 17.4 8.9 42 7.1 WSW 24 35 13 19 1014.5 1014.4 0.0
22/01:00pm 22.0 17.0 9.6 45 6.7 W 26 33 14 18 1014.5 1014.4 0.0
22/12:30pm 21.3 17.2 8.8 44 6.6 W 20 32 11 17 1014.5 1014.4 0.0
22/12:00pm 22.4 18.4 8.9 42 7.2 W 20 28 11 15 1014.5 1014.4 0.0
22/11:30am 21.1 17.9 10.0 49 6.0 WSW 17 24 9 13 1014.6 1014.5 0.0
22/11:00am 20.2 15.4 9.0 48 5.9 W 24 28 13 15 1014.5 1014.4 0.0
22/10:30am 21.4 18.5 11.1 52 5.7 SW 17 30 9 16 1014.5 1014.4 0.0
22/10:00am 19.7 16.4 10.9 57 4.8 SW 19 26 10 14 1014.6 1014.5 0.0
22/09:30am 19.7 17.4 11.8 60 4.4 SW 15 26 8 14 1014.6 1014.5 0.0
22/09:00am 19.9 16.9 12.0 60 4.4 S 19 24 10 13 1014.5 1014.4 0.4
22/08:30am 18.5 16.9 11.4 63 3.9 SW 11 17 6 9 1014.4 1014.3 0.4
22/08:00am 18.1 16.2 11.9 67 3.4 S 13 17 7 9 1014.3 1014.2 0.4
22/07:30am 17.6 16.8 13.0 74 2.6 SSE 9 13 5 7 1014.2 1014.1 0.4
22/07:00am 16.2 16.4 14.1 87 1.2 SW 6 11 3 6 1014.1 1014.0 0.4
22/06:30am 15.4 16.6 13.8 90 0.9 CALM 0 0 0 0 1013.9 1013.8 0.4
22/06:00am 14.9 15.7 13.8 93 0.6 NNW 2 7 1 4 1013.7 1013.6 0.2
22/05:30am 14.4 14.4 13.5 94 0.5 ENE 6 7 3 4 1013.4 1013.3 0.2
22/05:00am 13.9 14.8 12.8 93 0.6 CALM 0 7 0 4 1013.0 1012.9 0.2
22/04:30am 14.7 13.6 13.1 90 0.9 SSW 11 15 6 8 1013.0 1012.9 0.2
22/04:00am 14.2 13.3 12.6 90 0.9 SSW 9 11 5 6 1012.8 1012.7 0.2
22/03:30am 14.4 12.8 12.9 91 0.8 SW 13 17 7 9 1012.8 1012.7 0.2
22/03:00am 15.2 14.1 12.1 82 1.7 SW 9 15 5 8 1012.8 1012.7 0.0
22/02:30am 15.2 13.5 12.3 83 1.6 S 13 17 7 9 1012.7 1012.6 0.0
22/02:00am 15.4 13.1 11.7 78 2.0 SSW 15 22 8 12 1012.7 1012.6 0.0
22/01:30am 16.2 13.6 10.6 69 3.0 SSW 15 20 8 11 1012.7 1012.6 0.0
22/01:00am 16.1 13.3 11.5 74 2.5 SW 17 26 9 14 1012.9 1012.8 0.0
22/12:30am 16.5 13.9 13.3 81 1.8 SW 19 30 10 16 1013.0 1012.9 0.0
22/12:00am 15.4 15.9 11.5 77 2.1 CALM 0 0 0 0 1012.9 1012.8 0.0
 
Date/Time
WST
Temp
°C
App
Temp
°C
Dew
Point
Rel
Hum
%
Delta-T
°C
Wind Press
QNH
hPa
Press
MSL
hPa
Rain
since 9 am
mm
Dir
 
Spd
km/h
Gust
km/h
Spd
kts
Gust
kts
21/11:30pm 15.4 15.9 11.5 77 2.1 CALM 0 0 0 0 1013.1 1013.0 0.0
21/11:00pm 15.8 15.1 11.3 74 2.4 S 6 7 3 4 1013.2 1013.1 0.0
21/10:30pm 16.7 15.4 11.3 70 2.9 SSW 9 11 5 6 1013.5 1013.4 0.0
21/10:00pm 17.4 14.8 11.9 70 3.0 SW 17 24 9 13 1013.7 1013.6 0.0
21/09:30pm 17.1 15.5 11.6 70 3.0 SW 11 15 6 8 1013.6 1013.5 0.0
21/09:00pm 17.7 15.3 11.5 67 3.4 SW 15 20 8 11 1013.4 1013.3 0.0
21/08:30pm 17.7 15.1 12.1 69 3.1 SW 17 22 9 12 1013.2 1013.1 0.0
21/08:00pm 17.7 15.9 11.0 65 3.6 SW 11 20 6 11 1013.1 1013.0 0.0
21/07:30pm 17.4 15.4 10.0 62 3.9 SW 11 17 6 9 1012.9 1012.8 0.0
21/07:00pm 17.8 15.4 9.9 60 4.2 WSW 13 20 7 11 1012.8 1012.7 0.0
21/06:30pm 18.6 15.0 9.7 56 4.7 WSW 19 24 10 13 1012.6 1012.5 0.0
21/06:00pm 19.0 15.2 9.8 55 4.9 WSW 20 32 11 17 1012.3 1012.2 0.0
21/05:30pm 20.3 16.8 10.1 52 5.5 SW 19 24 10 13 1012.1 1012.0 0.0
21/05:00pm 20.2 15.7 10.0 52 5.5 WSW 24 32 13 17 1012.0 1011.9 0.0
21/04:30pm 21.0 16.5 9.9 49 6.0 WSW 24 35 13 19 1012.1 1012.0 0.0
21/04:00pm 20.9 16.4 10.0 49 5.9 WSW 24 33 13 18 1012.3 1012.2 0.0
21/03:30pm 20.9 15.5 9.5 48 6.1 WSW 28 35 15 19 1012.4 1012.3 0.0
21/03:00pm 21.7 16.8 9.9 47 6.4 WSW 26 37 14 20 1012.3 1012.2 0.0
21/02:30pm 21.7 16.2 9.2 44 6.7 W 28 35 15 19 1012.2 1012.1 0.0
21/02:00pm 22.1 17.4 9.2 43 6.9 W 24 33 13 18 1012.2 1012.1 0.0
21/01:30pm 22.3 18.3 10.5 47 6.5 WSW 22 30 12 16 1012.3 1012.2 0.0
21/01:00pm 21.9 16.6 9.9 46 6.5 W 28 33 15 18 1012.5 1012.4 0.0

Other Formats:

Comma delimited format used in spreadsheet applications
http://www.bom.gov.au/fwo/IDW60801/IDW60801.94609.axf

JavaScript Object Notation format (JSON) in row-major order
http://www.bom.gov.au/fwo/IDW60801/IDW60801.94609.json